Time;durP1;ratioP1;P1;durP2;ratioP2;P2;SDS_P1;SDS_P2;PMS_P1;PMS_P2;Temp;Humidity;BMP_temperature;BMP_pressure;BME280_temperature;BME280_humidity;BME280_pressure;Samples;Min_cycle;Max_cycle;Signal;HPM_P1;HPM_P2
2022/10/22 00:09:07;;;;;;;2.33;0.80;;;;;;;14.54;100.00;99992.75;20514804;28;20050;-80
2022/10/22 00:19:09;;;;;;;3.40;0.77;;;;;;;14.62;100.00;100038.09;20505739;28;20054;-79
2022/10/22 00:29:11;;;;;;;3.55;0.80;;;;;;;14.52;100.00;100034.09;20525480;28;20047;-79
2022/10/22 00:39:14;;;;;;;3.20;0.88;;;;;;;14.47;100.00;100019.31;20515782;28;20523;-79
2022/10/22 00:49:16;;;;;;;2.17;0.52;;;;;;;14.52;100.00;100020.94;20523711;28;20573;-79
2022/10/22 00:59:17;;;;;;;3.67;0.80;;;;;;;14.44;100.00;100022.09;20535893;28;20043;-79
2022/10/22 01:09:18;;;;;;;2.33;0.60;;;;;;;14.36;100.00;100032.91;20517324;28;20416;-80
2022/10/22 01:19:20;;;;;;;2.25;0.50;;;;;;;14.31;100.00;100046.25;20526647;28;20054;-80
2022/10/22 01:29:21;;;;;;;3.80;0.65;;;;;;;14.36;100.00;100090.84;20515038;28;20078;-79
2022/10/22 01:39:22;;;;;;;3.72;0.90;;;;;;;14.26;100.00;100077.16;20501367;28;20071;-79
2022/10/22 01:49:24;;;;;;;2.50;0.90;;;;;;;14.15;100.00;100050.38;20493175;28;20043;-80
2022/10/22 01:59:25;;;;;;;3.05;0.80;;;;;;;14.09;100.00;100038.28;20498100;28;20051;-78
2022/10/22 02:09:26;;;;;;;2.28;0.50;;;;;;;14.04;100.00;100056.03;20482044;28;20043;-79
2022/10/22 02:19:28;;;;;;;2.83;0.80;;;;;;;13.88;100.00;100060.09;20528637;28;20050;-78
2022/10/22 02:29:29;;;;;;;2.92;0.60;;;;;;;13.95;100.00;100045.81;20521912;28;20098;-79
2022/10/22 02:39:30;;;;;;;3.22;0.88;;;;;;;13.83;100.00;100015.50;20501717;28;20047;-79
2022/10/22 02:49:32;;;;;;;5.72;0.98;;;;;;;13.72;100.00;100009.78;20521142;28;20189;-79
2022/10/22 02:59:33;;;;;;;4.43;0.90;;;;;;;13.73;100.00;100034.31;20513774;28;20055;-80
2022/10/22 03:09:34;;;;;;;3.22;0.90;;;;;;;13.93;100.00;100026.56;20524232;28;20047;-78
2022/10/22 03:19:36;;;;;;;3.35;1.10;;;;;;;13.77;100.00;100043.81;20512935;28;20047;-79
2022/10/22 03:29:38;;;;;;;2.05;0.70;;;;;;;13.65;100.00;100058.22;20514829;28;20512;-79
2022/10/22 03:39:39;;;;;;;4.25;0.80;;;;;;;13.58;100.00;100051.47;20497277;28;20039;-79
2022/10/22 03:49:40;;;;;;;2.10;0.80;;;;;;;13.41;100.00;100070.44;20517605;28;20101;-78
2022/10/22 03:59:42;;;;;;;2.22;0.80;;;;;;;13.43;100.00;100081.78;20517606;28;20047;-79
2022/10/22 04:09:43;;;;;;;3.35;1.13;;;;;;;13.32;100.00;100116.31;20505048;28;20044;-79
2022/10/22 04:19:44;;;;;;;3.33;1.40;;;;;;;13.20;100.00;100134.19;20524106;28;20051;-80
2022/10/22 04:29:46;;;;;;;4.50;1.80;;;;;;;13.23;100.00;100134.16;20523419;28;20329;-79
2022/10/22 04:39:47;;;;;;;6.05;2.00;;;;;;;13.19;100.00;100132.47;20536234;28;20047;-79
2022/10/22 04:49:49;;;;;;;8.13;2.03;;;;;;;13.14;100.00;100123.88;20529004;28;20162;-80
2022/10/22 04:59:50;;;;;;;5.68;2.58;;;;;;;13.17;100.00;100131.66;20529580;28;20047;-80
2022/10/22 05:09:52;;;;;;;6.78;2.60;;;;;;;13.06;100.00;100138.09;20521040;28;20508;-80
2022/10/22 05:19:53;;;;;;;5.15;1.88;;;;;;;12.98;100.00;100145.38;20535247;28;20058;-78
2022/10/22 05:29:54;;;;;;;4.60;1.92;;;;;;;12.95;100.00;100161.22;20504009;28;20455;-79
2022/10/22 05:39:56;;;;;;;4.72;1.90;;;;;;;12.84;100.00;100179.06;20522888;28;20035;-79
2022/10/22 05:50:17;;;;;;;5.32;2.60;;;;;;;12.76;100.00;100186.28;20500228;28;20075;-79
2022/10/22 06:00:18;;;;;;;7.93;2.78;;;;;;;12.66;100.00;100200.59;20511848;28;20043;-79
2022/10/22 06:10:20;;;;;;;7.55;2.95;;;;;;;12.64;100.00;100213.75;20532421;28;20043;-80
2022/10/22 06:20:21;;;;;;;6.05;2.53;;;;;;;12.68;100.00;100217.16;20513660;28;20118;-79
2022/10/22 06:30:22;;;;;;;7.53;2.25;;;;;;;12.74;100.00;100233.63;20503428;28;20074;-79
2022/10/22 06:40:24;;;;;;;6.93;2.92;;;;;;;12.78;100.00;100248.38;20495898;28;20257;-79
2022/10/22 06:50:25;;;;;;;12.85;5.97;;;;;;;12.84;100.00;100257.91;20492235;28;20051;-79
2022/10/22 07:00:27;;;;;;;6.00;2.80;;;;;;;12.93;100.00;100273.38;20491103;28;20047;-79
2022/10/22 07:10:28;;;;;;;4.72;2.05;;;;;;;13.06;100.00;100287.91;20498676;28;20040;-79
2022/10/22 07:20:31;;;;;;;3.17;1.58;;;;;;;13.27;100.00;100293.50;20509497;28;20130;-79
2022/10/22 07:30:32;;;;;;;4.03;1.63;;;;;;;13.64;100.00;100295.94;20491279;28;20055;-79
2022/10/22 07:40:33;;;;;;;9.43;1.88;;;;;;;13.87;100.00;100311.03;20490415;28;20047;-80
2022/10/22 07:50:35;;;;;;;7.35;1.90;;;;;;;14.11;100.00;100319.94;20497131;28;20049;-80
2022/10/22 08:00:36;;;;;;;2.88;1.25;;;;;;;14.23;100.00;100347.63;20513927;28;20066;-79
2022/10/22 08:10:38;;;;;;;5.97;1.30;;;;;;;14.18;100.00;100347.81;20488931;28;20039;-80
2022/10/22 08:20:39;;;;;;;3.65;1.20;;;;;;;14.07;100.00;100360.44;20494054;28;20046;-80
2022/10/22 08:30:41;;;;;;;3.85;1.20;;;;;;;14.27;100.00;100372.97;20499993;28;20055;-81
2022/10/22 08:40:42;;;;;;;5.82;1.65;;;;;;;14.51;100.00;100382.75;20522280;28;20047;-80
2022/10/22 08:50:44;;;;;;;4.50;1.08;;;;;;;14.76;100.00;100384.63;20536378;28;20075;-81
2022/10/22 09:00:45;;;;;;;1.50;0.73;;;;;;;14.88;100.00;100394.75;20519642;28;20146;-80
2022/10/22 09:10:47;;;;;;;3.72;1.10;;;;;;;15.04;100.00;100403.88;20502411;28;20067;-80
2022/10/22 09:20:48;;;;;;;2.20;0.82;;;;;;;15.24;100.00;100399.69;20511378;28;20051;-80
2022/10/22 09:30:49;;;;;;;1.95;0.82;;;;;;;15.56;100.00;100409.06;20504612;28;20137;-80
2022/10/22 09:40:51;;;;;;;1.50;0.60;;;;;;;15.71;100.00;100419.09;20497009;28;20046;-80
2022/10/22 09:50:52;;;;;;;4.45;1.25;;;;;;;16.06;100.00;100417.81;20502072;29;20080;-79
2022/10/22 10:00:54;;;;;;;2.95;0.68;;;;;;;16.22;100.00;100422.50;20507151;28;20102;-80
2022/10/22 10:10:55;;;;;;;2.88;0.88;;;;;;;16.56;100.00;100416.75;20526551;28;20051;-80
2022/10/22 10:20:57;;;;;;;5.25;0.93;;;;;;;16.68;100.00;100427.69;20526645;28;20432;-80
2022/10/22 10:30:58;;;;;;;5.07;1.20;;;;;;;17.05;100.00;100420.91;20511742;28;20213;-80
2022/10/22 10:40:59;;;;;;;4.35;1.10;;;;;;;17.20;100.00;100435.28;20516125;28;20051;-80
2022/10/22 10:51:01;;;;;;;3.35;1.00;;;;;;;17.37;100.00;100426.63;20493948;28;20493;-80
2022/10/22 11:01:02;;;;;;;4.90;1.15;;;;;;;17.66;100.00;100423.53;20518048;28;20732;-79
2022/10/22 11:11:05;;;;;;;5.78;1.67;;;;;;;18.28;100.00;100432.22;20525932;28;20039;-80
2022/10/22 11:21:06;;;;;;;5.80;1.67;;;;;;;18.27;100.00;100424.34;20509569;28;20496;-80
2022/10/22 11:31:08;;;;;;;3.40;0.90;;;;;;;18.17;100.00;100419.47;20503236;28;20463;-79
2022/10/22 11:41:09;;;;;;;4.45;1.10;;;;;;;18.40;100.00;100420.19;20512734;28;20075;-80
2022/10/22 11:51:11;;;;;;;5.90;1.63;;;;;;;18.60;100.00;100401.53;20509773;28;20050;-80
2022/10/22 12:01:12;;;;;;;4.93;1.38;;;;;;;18.81;100.00;100398.78;20519264;28;20076;-77
2022/10/22 12:11:14;;;;;;;4.82;1.25;;;;;;;18.81;100.00;100391.66;20499042;28;20043;-77
2022/10/22 12:21:15;;;;;;;5.55;1.58;;;;;;;18.90;100.00;100385.06;20501617;28;20046;-77
2022/10/22 12:31:16;;;;;;;4.95;1.23;;;;;;;19.00;100.00;100361.56;20508843;28;20055;-80
2022/10/22 12:41:18;;;;;;;5.05;0.82;;;;;;;18.75;100.00;100367.25;20520103;28;20050;-79
2022/10/22 12:51:19;;;;;;;5.35;1.33;;;;;;;18.92;100.00;100368.13;20526238;28;20472;-79
2022/10/22 13:01:20;;;;;;;5.95;1.00;;;;;;;19.12;100.00;100361.81;20508301;28;20448;-80
2022/10/22 13:11:22;;;;;;;3.63;1.05;;;;;;;19.06;100.00;100367.41;20509464;28;20093;-80
2022/10/22 13:21:23;;;;;;;6.07;0.98;;;;;;;19.00;100.00;100362.41;20526079;28;20102;-81
2022/10/22 13:31:24;;;;;;;3.65;0.98;;;;;;;19.08;100.00;100354.94;20514801;28;20035;-79
2022/10/22 13:41:26;;;;;;;5.20;1.40;;;;;;;19.28;100.00;100350.38;20525463;28;20047;-80
2022/10/22 13:51:27;;;;;;;5.13;1.17;;;;;;;19.15;100.00;100348.34;20513315;28;20047;-79
2022/10/22 14:01:29;;;;;;;3.55;1.13;;;;;;;19.36;100.00;100348.19;20506322;28;20043;-79
2022/10/22 14:11:31;;;;;;;2.35;0.80;;;;;;;19.23;100.00;100340.84;20519007;28;20575;-80
2022/10/22 14:21:32;;;;;;;4.45;1.10;;;;;;;19.15;100.00;100336.88;20527646;28;20118;-81
2022/10/22 14:31:35;;;;;;;8.90;1.35;;;;;;;19.11;100.00;100341.47;20533479;28;20101;-80
2022/10/22 14:41:36;;;;;;;4.53;1.00;;;;;;;19.08;100.00;100343.47;20516933;28;20478;-80
2022/10/22 14:51:38;;;;;;;5.53;1.35;;;;;;;18.89;100.00;100336.44;20533714;28;20046;-80
2022/10/22 15:01:41;;;;;;;5.63;1.20;;;;;;;18.80;100.00;100344.88;20509151;28;20043;-78
2022/10/22 15:11:43;;;;;;;3.80;0.90;;;;;;;18.72;100.00;100357.66;20520155;28;20136;-77
2022/10/22 15:21:44;;;;;;;4.60;1.20;;;;;;;18.53;100.00;100359.47;20510998;28;20051;-78
2022/10/22 15:31:46;;;;;;;3.75;1.15;;;;;;;18.32;100.00;100358.72;20529734;28;20071;-78
2022/10/22 15:41:47;;;;;;;4.90;1.52;;;;;;;17.98;100.00;100365.63;20515447;28;20051;-77
2022/10/22 15:51:48;;;;;;;7.28;1.55;;;;;;;17.33;100.00;100366.78;20523742;28;20505;-78
2022/10/22 16:01:50;;;;;;;9.50;1.10;;;;;;;17.00;100.00;100362.03;20507955;28;20504;-79
2022/10/22 16:11:51;;;;;;;8.85;1.60;;;;;;;16.69;100.00;100354.53;20518459;28;20059;-79
2022/10/22 16:21:53;;;;;;;6.60;1.00;;;;;;;16.32;100.00;100360.44;20532466;28;20131;-81
2022/10/22 16:31:55;;;;;;;41.33;7.28;;;;;;;15.92;100.00;100366.44;20540211;28;20070;-80
2022/10/22 16:41:56;;;;;;;38.30;5.65;;;;;;;15.61;100.00;100365.75;20537296;28;20043;-81
2022/10/22 16:51:57;;;;;;;25.55;10.23;;;;;;;15.38;100.00;100381.59;20518344;28;20106;-78
2022/10/22 17:01:59;;;;;;;8.23;2.00;;;;;;;15.14;100.00;100394.72;20493931;28;20043;-79
2022/10/22 17:12:00;;;;;;;11.38;2.83;;;;;;;14.96;100.00;100389.22;20519675;28;20074;-80
2022/10/22 17:22:02;;;;;;;9.15;2.72;;;;;;;14.75;100.00;100407.44;20497707;28;21359;-80
2022/10/22 17:32:03;;;;;;;6.10;2.72;;;;;;;14.58;100.00;100413.28;20522578;28;20059;-79
2022/10/22 17:42:05;;;;;;;8.35;2.80;;;;;;;14.42;100.00;100414.66;20515494;28;20094;-79
2022/10/22 17:52:06;;;;;;;8.35;2.55;;;;;;;14.27;100.00;100420.38;20512843;28;20047;-79
2022/10/22 18:02:08;;;;;;;10.45;5.45;;;;;;;14.12;100.00;100430.47;20495088;28;20102;-79
2022/10/22 18:12:11;;;;;;;9.73;5.72;;;;;;;14.14;100.00;100409.38;20494590;28;20059;-79
2022/10/22 18:22:13;;;;;;;12.77;5.85;;;;;;;13.97;100.00;100407.22;20516362;28;20106;-79
2022/10/22 18:32:14;;;;;;;8.32;3.80;;;;;;;13.86;100.00;100404.91;20496640;28;20385;-80
2022/10/22 18:42:16;;;;;;;9.82;4.70;;;;;;;13.72;100.00;100391.28;20514643;28;20057;-81
2022/10/22 18:52:17;;;;;;;11.15;4.63;;;;;;;13.65;100.00;100404.66;20503340;28;20047;-80
2022/10/22 19:02:18;;;;;;;11.82;4.40;;;;;;;13.52;100.00;100415.53;20527481;28;20050;-81
2022/10/22 19:12:20;;;;;;;10.68;3.90;;;;;;;13.44;100.00;100407.00;20524802;28;20043;-80
2022/10/22 19:22:21;;;;;;;16.65;3.70;;;;;;;13.35;100.00;100401.97;20549714;28;20074;-81
2022/10/22 19:32:23;;;;;;;14.60;3.28;;;;;;;13.24;100.00;100393.53;20547927;28;20035;-81
2022/10/22 19:42:30;;;;;;;10.88;3.30;;;;;;;13.14;100.00;100395.50;20537963;28;20492;-81
2022/10/22 19:52:31;;;;;;;11.52;4.15;;;;;;;12.98;100.00;100397.69;20540794;28;20102;-81
2022/10/22 20:02:33;;;;;;;8.63;3.13;;;;;;;12.86;100.00;100397.97;20548744;28;20075;-81
2022/10/22 20:12:34;;;;;;;11.45;3.35;;;;;;;12.73;100.00;100393.91;20556441;28;20039;-80
2022/10/22 20:22:35;;;;;;;6.45;2.95;;;;;;;12.65;100.00;100403.72;20535858;28;20039;-81
2022/10/22 20:32:37;;;;;;;16.23;4.20;;;;;;;12.59;100.00;100402.13;20522552;28;20047;-80
2022/10/22 20:42:39;;;;;;;13.15;3.25;;;;;;;12.50;100.00;100387.47;20542890;28;20050;-81
2022/10/22 20:52:41;;;;;;;9.45;3.60;;;;;;;12.30;100.00;100395.78;20536016;28;20130;-81
2022/10/22 21:02:42;;;;;;;8.55;3.22;;;;;;;12.20;100.00;100396.03;20541494;28;20051;-81
2022/10/22 21:12:44;;;;;;;8.25;3.55;;;;;;;12.07;100.00;100401.59;20515699;28;20658;-81
2022/10/22 21:22:45;;;;;;;8.60;3.55;;;;;;;11.91;100.00;100391.44;20530291;28;20130;-80
2022/10/22 21:32:47;;;;;;;10.68;3.78;;;;;;;11.81;100.00;100381.09;20519487;28;20048;-81
2022/10/22 21:42:50;;;;;;;13.05;4.07;;;;;;;11.71;100.00;100386.56;20545989;28;20046;-81
2022/10/22 21:52:51;;;;;;;11.07;3.60;;;;;;;11.59;100.00;100387.66;20540765;28;20460;-81
2022/10/22 22:02:52;;;;;;;11.30;4.97;;;;;;;11.52;100.00;100392.19;20526580;28;20043;-81
2022/10/22 22:12:54;;;;;;;9.88;4.80;;;;;;;11.49;100.00;100396.63;20516145;28;20044;-81
2022/10/22 22:22:55;;;;;;;12.15;4.80;;;;;;;11.42;100.00;100395.03;20531892;28;20071;-80
2022/10/22 22:32:57;;;;;;;12.80;5.25;;;;;;;11.23;100.00;100391.88;20530498;28;20066;-80
2022/10/22 22:42:58;;;;;;;11.80;5.30;;;;;;;11.12;100.00;100378.13;20491383;28;20055;-81
2022/10/22 22:52:59;;;;;;;12.35;5.97;;;;;;;11.04;100.00;100388.72;20496746;28;20039;-80
2022/10/22 23:03:01;;;;;;;10.27;5.57;;;;;;;11.02;100.00;100383.53;20532526;28;20070;-81
2022/10/22 23:13:02;;;;;;;11.40;5.22;;;;;;;10.98;100.00;100379.22;20529092;28;20047;-81
2022/10/22 23:23:05;;;;;;;13.75;5.57;;;;;;;10.92;100.00;100381.06;20534203;28;20047;-81
2022/10/22 23:33:06;;;;;;;12.43;5.40;;;;;;;10.84;100.00;100383.84;20552667;28;20040;-81
2022/10/22 23:43:07;;;;;;;9.43;5.18;;;;;;;10.77;100.00;100369.97;20546319;28;20089;-81
2022/10/22 23:53:09;;;;;;;12.02;5.20;;;;;;;10.78;100.00;100360.38;20544033;28;20112;-81
